CheckWX is a tool to help pilots better visualize weather data.  It is not intended as a substitute for an official pre-flight weather briefing.

17:57:37 UTC

KEBS METAR
Webster City Municipal Airport
Webster City, Iowa, USA
Current

23 mins ago

KEBS 211735Z AUTO 05009G15KT 10SM CLR 24/17 A3004 RMK AO2
Observed
Jul-21 @ 17:35 UTC
Wind
  • 050° at 9 KTS
  • Gusting to 15 KTS
Visibility
10 SM
Flight Rules
VFR
Cloud Levels
  • Clear skies
Temperature
24°C / 75°F
Dewpoint
17°C / 63°F
Humidity
65%
Altimeter
30.04" Hg
Pressure
1017.32 hPa
Previous

43 mins ago

KEBS 211715Z AUTO 06010KT 10SM CLR 24/17 A3004 RMK AO2
Observed
Jul-21 @ 17:15 UTC
Wind
  • 060° at 10 KTS
Visibility
10 SM
Flight Rules
VFR
Cloud Levels
  • Clear skies
Temperature
24°C / 75°F
Dewpoint
17°C / 63°F
Humidity
65%
Altimeter
30.04" Hg
Pressure
1017.32 hPa
Previous

1 hour ago

KEBS 211655Z AUTO 07007G12KT 10SM CLR 23/18 A3004 RMK AO2
Observed
Jul-21 @ 16:55 UTC
Wind
  • 070° at 7 KTS
  • Gusting to 12 KTS
Visibility
10 SM
Flight Rules
VFR
Cloud Levels
  • Clear skies
Temperature
23°C / 73°F
Dewpoint
18°C / 64°F
Humidity
74%
Altimeter
30.04" Hg
Pressure
1017.32 hPa